Time;durP1;ratioP1;P1;durP2;ratioP2;P2;SDS_P1;SDS_P2;PMS_P1;PMS_P2;Temp;Humidity;BMP_temperature;BMP_pressure;BME280_temperature;BME280_humidity;BME280_pressure;Samples;Min_cycle;Max_cycle;Signal;HPM_P1;HPM_P2
2021/11/30 00:01:06;;;;;;;2.00;1.90;;;2.30;99.90;;;;;;5033460;28;20168;-56
2021/11/30 00:03:32;;;;;;;2.23;2.00;;;2.30;99.90;;;;;;5033716;28;20199;-54
2021/11/30 00:05:58;;;;;;;2.30;2.10;;;2.30;99.90;;;;;;5032679;28;20200;-54
2021/11/30 00:08:27;;;;;;;2.30;1.87;;;2.30;99.90;;;;;;5033531;28;20182;-53
2021/11/30 00:10:54;;;;;;;2.37;2.17;;;2.30;99.90;;;;;;5015386;28;20207;-55
2021/11/30 00:13:21;;;;;;;2.30;2.10;;;2.30;99.90;;;;;;5033549;28;20207;-55
2021/11/30 00:15:49;;;;;;;2.93;2.60;;;2.30;99.90;;;;;;5031931;28;20461;-54
2021/11/30 00:18:15;;;;;;;3.27;2.43;;;2.30;99.90;;;;;;5033416;28;20897;-54
2021/11/30 00:20:42;;;;;;;2.53;2.33;;;2.30;99.90;;;;;;5025652;28;20185;-56
2021/11/30 00:23:08;;;;;;;2.20;2.00;;;2.40;99.90;;;;;;5032818;28;20182;-52
2021/11/30 00:25:34;;;;;;;2.40;2.20;;;2.30;99.90;;;;;;5032392;28;20722;-55
2021/11/30 00:28:00;;;;;;;2.53;2.23;;;2.30;99.90;;;;;;5032600;28;20199;-54
2021/11/30 00:30:26;;;;;;;2.70;2.50;;;2.30;99.90;;;;;;5032870;28;20187;-54
2021/11/30 00:32:52;;;;;;;2.80;2.60;;;2.30;99.90;;;;;;5032724;28;20171;-54
2021/11/30 00:35:18;;;;;;;2.50;2.30;;;2.30;99.90;;;;;;5032609;28;20188;-55
2021/11/30 00:37:44;;;;;;;2.60;2.40;;;2.40;99.90;;;;;;5032386;28;20550;-55
2021/11/30 00:40:11;;;;;;;3.07;2.30;;;2.40;99.90;;;;;;5032856;28;20226;-56
2021/11/30 00:42:37;;;;;;;2.70;2.50;;;2.30;99.90;;;;;;5032660;28;20229;-52
2021/11/30 00:45:05;;;;;;;2.80;2.60;;;2.40;99.90;;;;;;5032560;28;20619;-53
2021/11/30 00:47:32;;;;;;;2.87;2.63;;;2.30;99.90;;;;;;5032488;28;20613;-54
2021/11/30 00:50:00;;;;;;;3.13;2.83;;;2.40;99.90;;;;;;5032579;28;20225;-54
2021/11/30 00:52:26;;;;;;;2.80;2.60;;;2.40;99.90;;;;;;5032715;28;20438;-55
2021/11/30 00:54:52;;;;;;;3.63;2.73;;;2.40;99.90;;;;;;5023693;28;20210;-52
2021/11/30 00:57:18;;;;;;;2.90;2.30;;;2.30;99.90;;;;;;5032407;28;20257;-54
2021/11/30 00:59:44;;;;;;;2.40;2.20;;;2.30;99.90;;;;;;5032293;28;20229;-52
2021/11/30 01:02:10;;;;;;;2.20;2.00;;;2.40;99.90;;;;;;5032485;28;20179;-53
2021/11/30 01:04:35;;;;;;;2.70;2.40;;;2.40;99.90;;;;;;5032151;28;20179;-54
2021/11/30 01:07:01;;;;;;;2.27;2.07;;;2.40;99.90;;;;;;5032260;28;20203;-52
2021/11/30 01:09:27;;;;;;;2.63;2.40;;;2.30;99.90;;;;;;5032096;28;20631;-52
2021/11/30 01:11:53;;;;;;;2.57;2.37;;;2.40;99.90;;;;;;5032337;28;20168;-55
2021/11/30 01:14:21;;;;;;;2.30;2.10;;;2.40;99.90;;;;;;5032216;28;20176;-55
2021/11/30 01:16:47;;;;;;;2.50;2.30;;;2.30;99.90;;;;;;5031736;28;20199;-54
2021/11/30 01:19:12;;;;;;;2.50;2.27;;;2.40;99.90;;;;;;5031839;28;20187;-54
2021/11/30 01:21:38;;;;;;;2.53;2.33;;;2.40;99.90;;;;;;5032083;28;20175;-55
2021/11/30 01:24:06;;;;;;;2.50;2.30;;;2.40;99.90;;;;;;5032106;28;20179;-53
2021/11/30 01:26:32;;;;;;;2.70;2.50;;;2.40;99.90;;;;;;5031336;28;20235;-53
2021/11/30 01:28:58;;;;;;;3.27;2.70;;;2.40;99.90;;;;;;5031729;28;20232;-52
2021/11/30 01:31:24;;;;;;;2.87;2.67;;;2.40;99.90;;;;;;5031672;28;20410;-53
2021/11/30 01:33:50;;;;;;;2.70;2.50;;;2.40;99.90;;;;;;5032014;28;20229;-54
2021/11/30 01:36:16;;;;;;;2.93;2.63;;;2.40;99.90;;;;;;5031618;28;20616;-54
2021/11/30 01:38:41;;;;;;;3.00;2.63;;;2.40;99.90;;;;;;5031673;28;20180;-54
2021/11/30 01:41:08;;;;;;;2.60;2.40;;;2.40;99.90;;;;;;5031961;28;20179;-55
2021/11/30 01:43:40;;;;;;;3.03;2.73;;;2.40;99.90;;;;;;5028023;28;20186;-49
2021/11/30 01:46:12;;;;;;;4.17;2.93;;;2.40;99.90;;;;;;5023759;28;20227;-54
2021/11/30 01:51:25;;;;;;;2.83;2.63;;;2.40;99.90;;;;;;5031788;28;20175;-55
2021/11/30 01:53:53;;;;;;;3.40;3.10;;;2.40;99.90;;;;;;5024605;28;20654;-54
2021/11/30 01:56:19;;;;;;;3.17;2.70;;;2.40;99.90;;;;;;5030980;28;20294;-54
2021/11/30 01:58:46;;;;;;;2.83;2.60;;;2.40;99.90;;;;;;5031287;28;20164;-54
2021/11/30 02:01:12;;;;;;;3.70;3.20;;;2.40;99.90;;;;;;5029295;28;20183;-54
2021/11/30 02:03:38;;;;;;;2.70;2.50;;;2.40;99.90;;;;;;5031246;28;20199;-55
2021/11/30 02:06:03;;;;;;;3.27;2.97;;;2.40;99.90;;;;;;5031328;28;20591;-54
2021/11/30 02:08:29;;;;;;;3.13;2.77;;;2.90;99.90;;;;;;5031616;28;20176;-54
2021/11/30 02:10:56;;;;;;;4.10;2.87;;;2.40;99.90;;;;;;5031186;28;20194;-54
2021/11/30 02:13:23;;;;;;;2.87;2.67;;;2.40;99.90;;;;;;5031517;28;20218;-55
2021/11/30 02:15:52;;;;;;;3.43;3.00;;;2.40;99.90;;;;;;5030950;28;20190;-54
2021/11/30 02:18:24;;;;;;;3.23;2.93;;;2.40;99.90;;;;;;5029695;28;20650;-52
2021/11/30 02:20:57;;;;;;;3.00;2.73;;;2.40;99.90;;;;;;5031088;28;20182;-55
2021/11/30 02:23:49;;;;;;;3.37;2.70;;;2.30;99.90;;;;;;5031393;28;20251;-51
2021/11/30 02:26:16;;;;;;;3.20;2.90;;;2.30;99.90;;;;;;5030898;28;20195;-55
2021/11/30 02:28:45;;;;;;;3.33;3.03;;;2.30;99.90;;;;;;5031381;28;20176;-54
2021/11/30 02:31:15;;;;;;;2.63;2.43;;;2.30;99.90;;;;;;5031090;28;20195;-55
2021/11/30 02:33:40;;;;;;;3.53;3.00;;;2.30;99.90;;;;;;5031301;28;20217;-54
2021/11/30 02:36:26;;;;;;;3.33;3.03;;;2.30;99.90;;;;;;5030700;28;20674;-54
2021/11/30 02:38:54;;;;;;;2.97;2.67;;;2.30;99.90;;;;;;5032403;28;20654;-53
2021/11/30 02:41:20;;;;;;;3.27;2.97;;;2.30;99.90;;;;;;5035157;28;20223;-51
2021/11/30 02:43:46;;;;;;;2.93;2.50;;;2.30;99.90;;;;;;5035006;28;20646;-54
2021/11/30 02:46:34;;;;;;;3.83;2.77;;;2.30;99.90;;;;;;5034773;28;20188;-55
2021/11/30 02:49:01;;;;;;;3.00;2.73;;;2.30;99.90;;;;;;5034757;28;20654;-54
2021/11/30 02:51:27;;;;;;;3.23;2.83;;;2.30;99.90;;;;;;5034201;28;20172;-54
2021/11/30 02:53:54;;;;;;;3.10;2.80;;;2.30;99.90;;;;;;5034552;28;20543;-54
2021/11/30 02:56:20;;;;;;;3.30;3.00;;;2.30;99.90;;;;;;5034340;28;20208;-55
2021/11/30 02:58:46;;;;;;;3.20;2.90;;;2.30;99.90;;;;;;5034576;28;20413;-54
2021/11/30 03:01:12;;;;;;;3.10;2.80;;;2.30;99.90;;;;;;5034958;28;20176;-55
2021/11/30 03:03:38;;;;;;;3.13;2.83;;;2.30;99.90;;;;;;5034505;28;20736;-54
2021/11/30 03:06:04;;;;;;;3.47;2.70;;;2.40;99.90;;;;;;5034428;28;20725;-54
2021/11/30 03:08:30;;;;;;;3.03;2.73;;;2.40;99.90;;;;;;5034515;28;20413;-55
2021/11/30 03:10:56;;;;;;;3.00;2.70;;;2.40;99.90;;;;;;5034511;28;20199;-55
2021/11/30 03:13:22;;;;;;;3.00;2.70;;;2.40;99.90;;;;;;5034481;28;20165;-54
2021/11/30 03:15:54;;;;;;;3.13;2.83;;;2.40;99.90;;;;;;5033912;28;20204;-55
2021/11/30 03:18:21;;;;;;;4.03;2.73;;;2.30;99.90;;;;;;5034486;28;20195;-52
2021/11/30 03:20:47;;;;;;;3.37;3.07;;;2.40;99.90;;;;;;5034211;28;20176;-51
2021/11/30 03:23:13;;;;;;;3.30;3.00;;;2.30;99.90;;;;;;5034365;28;20172;-56
2021/11/30 03:25:41;;;;;;;2.73;2.53;;;2.40;99.90;;;;;;5033783;28;20271;-54
2021/11/30 03:28:06;;;;;;;3.10;2.80;;;2.40;99.90;;;;;;5034045;28;20172;-55
2021/11/30 03:30:35;;;;;;;2.60;2.40;;;2.40;99.90;;;;;;5034042;28;20689;-54
2021/11/30 03:35:49;;;;;;;3.00;2.70;;;2.40;99.90;;;;;;5005262;28;20702;-54
2021/11/30 03:38:15;;;;;;;3.87;2.73;;;2.40;99.90;;;;;;5033927;28;20398;-51
2021/11/30 03:40:41;;;;;;;3.30;2.90;;;2.40;99.90;;;;;;5034185;28;20784;-53
2021/11/30 03:43:06;;;;;;;3.27;2.40;;;2.40;99.90;;;;;;5033778;28;20676;-54
2021/11/30 03:45:32;;;;;;;3.40;2.40;;;2.40;99.90;;;;;;5033964;28;20204;-53
2021/11/30 03:47:58;;;;;;;2.70;2.50;;;2.40;99.90;;;;;;5033665;28;20546;-51
2021/11/30 03:50:24;;;;;;;3.77;2.57;;;2.40;99.90;;;;;;5032635;28;20195;-54
2021/11/30 03:52:50;;;;;;;3.10;2.80;;;2.40;99.90;;;;;;5033753;28;20262;-55
2021/11/30 03:55:16;;;;;;;2.63;2.37;;;2.40;99.90;;;;;;5033190;28;20630;-54
2021/11/30 03:57:42;;;;;;;2.80;2.60;;;2.30;99.90;;;;;;5033457;28;20172;-53
2021/11/30 04:00:10;;;;;;;2.67;2.27;;;2.30;99.90;;;;;;5033676;28;20701;-52
2021/11/30 04:02:38;;;;;;;3.00;2.60;;;2.30;99.90;;;;;;5033314;28;20589;-54
2021/11/30 04:05:05;;;;;;;2.40;2.20;;;2.30;99.90;;;;;;5033061;28;20527;-54
2021/11/30 04:07:30;;;;;;;2.20;2.00;;;2.30;99.90;;;;;;5033514;28;20589;-54
2021/11/30 04:09:56;;;;;;;2.77;2.30;;;2.30;99.90;;;;;;5033276;28;20199;-53
2021/11/30 04:12:22;;;;;;;2.10;1.90;;;2.30;99.90;;;;;;5033615;28;20182;-54
2021/11/30 04:14:47;;;;;;;2.80;2.50;;;2.30;99.90;;;;;;5032898;28;20200;-54
2021/11/30 04:17:13;;;;;;;2.40;2.20;;;2.30;99.90;;;;;;5033412;28;20278;-54
2021/11/30 04:19:38;;;;;;;3.40;2.40;;;2.30;99.90;;;;;;5033347;28;20254;-51
2021/11/30 04:22:04;;;;;;;2.53;2.33;;;4.00;99.90;;;;;;5033275;28;20176;-54
2021/11/30 04:24:30;;;;;;;2.80;2.20;;;2.30;99.90;;;;;;5033194;28;20195;-53
2021/11/30 04:26:55;;;;;;;2.37;2.17;;;2.30;99.90;;;;;;5015491;28;20654;-51
2021/11/30 04:29:21;;;;;;;2.40;2.20;;;2.30;99.90;;;;;;5033015;28;20184;-54
2021/11/30 04:31:46;;;;;;;2.53;2.30;;;2.30;99.90;;;;;;5032896;28;20175;-55
2021/11/30 04:34:12;;;;;;;2.53;2.20;;;2.40;99.90;;;;;;5033167;28;20175;-53
2021/11/30 04:36:38;;;;;;;2.40;2.20;;;2.30;99.90;;;;;;5032554;28;20191;-54
2021/11/30 04:39:04;;;;;;;2.27;2.00;;;2.30;99.90;;;;;;5032882;28;20689;-55
2021/11/30 04:41:30;;;;;;;2.73;2.30;;;2.40;99.90;;;;;;5032763;28;20190;-53
2021/11/30 04:43:56;;;;;;;2.40;2.20;;;2.40;99.90;;;;;;5032944;28;20250;-54
2021/11/30 04:46:26;;;;;;;2.60;2.23;;;2.40;99.90;;;;;;5032307;28;20183;-54
2021/11/30 04:49:06;;;;;;;1.87;1.77;;;2.30;99.90;;;;;;5032834;28;20168;-47
2021/11/30 04:51:33;;;;;;;2.67;2.20;;;2.40;99.90;;;;;;5032694;28;20160;-48
2021/11/30 04:53:59;;;;;;;2.37;2.17;;;2.40;99.90;;;;;;5032730;28;20171;-47
2021/11/30 04:56:24;;;;;;;2.33;2.13;;;2.50;99.90;;;;;;5065304;23;20591;-46
2021/11/30 04:58:50;;;;;;;2.13;1.93;;;2.40;99.90;;;;;;5024772;28;20184;-42
2021/11/30 05:01:19;;;;;;;2.47;2.20;;;2.40;99.90;;;;;;5016851;28;20199;-48
2021/11/30 05:03:45;;;;;;;2.10;1.90;;;2.40;99.90;;;;;;5031148;28;20176;-48
2021/11/30 05:06:12;;;;;;;2.23;2.03;;;2.40;99.90;;;;;;5025848;28;20176;-43
2021/11/30 05:08:38;;;;;;;1.97;1.87;;;2.40;99.90;;;;;;5012023;28;20176;-44
2021/11/30 05:11:04;;;;;;;2.27;1.87;;;2.40;99.90;;;;;;5012374;28;20200;-43
2021/11/30 05:13:30;;;;;;;2.10;1.90;;;2.40;99.90;;;;;;5011929;28;20513;-44
2021/11/30 05:15:56;;;;;;;5.73;2.20;;;2.40;99.90;;;;;;4999698;28;20173;-49
2021/11/30 05:18:22;;;;;;;2.30;2.10;;;2.40;99.90;;;;;;4992085;28;20201;-45
2021/11/30 05:20:48;;;;;;;2.40;2.20;;;2.40;99.90;;;;;;4992241;28;20165;-45
2021/11/30 05:23:16;;;;;;;2.30;2.10;;;2.40;99.90;;;;;;4992818;28;20420;-45
2021/11/30 05:25:43;;;;;;;2.03;1.70;;;2.40;99.90;;;;;;4992137;28;20215;-42
2021/11/30 05:28:08;;;;;;;1.63;1.53;;;2.40;99.90;;;;;;4992693;28;20181;-48
2021/11/30 05:30:38;;;;;;;2.97;2.40;;;2.40;99.90;;;;;;4992717;28;20212;-43
2021/11/30 05:33:09;;;;;;;3.03;2.10;;;2.30;99.90;;;;;;5005838;28;20537;-43
2021/11/30 05:35:36;;;;;;;1.93;1.83;;;2.40;99.90;;;;;;5011376;28;20251;-44
2021/11/30 05:38:02;;;;;;;2.23;2.10;;;2.40;99.90;;;;;;5011391;28;20626;-43
2021/11/30 05:40:28;;;;;;;2.57;2.20;;;2.40;99.90;;;;;;5011158;28;20177;-45
2021/11/30 05:42:54;;;;;;;2.70;2.20;;;2.40;99.90;;;;;;5011239;28;20195;-42
2021/11/30 05:45:20;;;;;;;3.47;2.07;;;2.40;99.90;;;;;;5011605;28;20173;-50
2021/11/30 05:47:47;;;;;;;4.10;2.33;;;2.40;99.90;;;;;;5011757;28;20701;-48
2021/11/30 05:50:13;;;;;;;2.67;1.87;;;2.40;99.90;;;;;;5012110;28;20236;-49
2021/11/30 05:52:39;;;;;;;1.93;1.60;;;2.40;99.90;;;;;;5011656;28;20248;-47
2021/11/30 05:55:05;;;;;;;2.00;1.90;;;2.40;99.90;;;;;;5011832;28;20300;-47
2021/11/30 05:57:32;;;;;;;1.67;1.57;;;2.40;99.90;;;;;;5011482;28;20685;-42
2021/11/30 06:00:00;;;;;;;1.60;1.50;;;2.40;99.90;;;;;;5011869;28;20518;-47
2021/11/30 06:02:26;;;;;;;1.77;1.60;;;2.40;99.90;;;;;;5011215;28;20164;-46
2021/11/30 06:04:51;;;;;;;2.73;1.80;;;2.40;99.90;;;;;;5009369;28;20175;-42
2021/11/30 06:07:17;;;;;;;1.90;1.80;;;2.40;99.90;;;;;;5007225;28;20196;-47
2021/11/30 06:09:43;;;;;;;5.37;1.47;;;2.40;99.90;;;;;;5011459;28;20208;-41
2021/11/30 06:12:08;;;;;;;1.87;1.77;;;2.40;99.90;;;;;;5011839;28;20179;-44
2021/11/30 06:14:34;;;;;;;2.40;1.70;;;2.40;99.90;;;;;;5013701;28;20212;-45
2021/11/30 06:17:00;;;;;;;1.60;1.50;;;2.40;99.90;;;;;;5015454;28;20701;-49
2021/11/30 06:19:25;;;;;;;1.73;1.63;;;2.40;99.90;;;;;;5001513;28;20237;-45
2021/11/30 06:21:51;;;;;;;2.03;1.70;;;2.40;99.90;;;;;;5023627;28;20188;-45
2021/11/30 06:24:18;;;;;;;1.93;1.77;;;2.40;99.90;;;;;;5014144;28;20207;-47
2021/11/30 06:26:44;;;;;;;1.87;1.73;;;2.40;99.90;;;;;;4998636;28;20258;-42
2021/11/30 06:29:09;;;;;;;2.27;1.47;;;2.40;99.90;;;;;;5015279;28;20172;-42
2021/11/30 06:31:35;;;;;;;1.80;1.70;;;2.40;99.90;;;;;;5014865;28;20184;-48
2021/11/30 06:34:01;;;;;;;1.40;1.30;;;2.40;99.90;;;;;;5014387;28;20168;-47
2021/11/30 06:36:26;;;;;;;1.70;1.60;;;2.30;99.90;;;;;;5012813;28;20184;-45
2021/11/30 06:38:52;;;;;;;1.40;1.30;;;2.40;99.90;;;;;;5013380;28;20690;-43
2021/11/30 06:41:17;;;;;;;1.77;1.67;;;2.40;99.90;;;;;;4995785;28;20655;-44
2021/11/30 06:43:44;;;;;;;1.87;1.70;;;2.40;99.90;;;;;;5013456;28;20177;-47
2021/11/30 06:46:09;;;;;;;1.93;1.70;;;2.40;99.90;;;;;;4995384;28;20279;-48
2021/11/30 06:48:35;;;;;;;1.70;1.60;;;2.40;99.90;;;;;;5014974;28;20263;-47
2021/11/30 06:51:00;;;;;;;2.00;1.90;;;2.40;99.90;;;;;;5026118;28;20204;-48
2021/11/30 06:53:32;;;;;;;2.17;1.60;;;2.40;99.90;;;;;;5015249;28;20591;-44
2021/11/30 06:55:58;;;;;;;1.90;1.80;;;2.40;99.90;;;;;;5014836;28;20223;-43
2021/11/30 06:58:23;;;;;;;1.83;1.47;;;2.40;99.90;;;;;;5014619;28;20208;-43
2021/11/30 07:00:51;;;;;;;2.17;1.57;;;2.40;99.90;;;;;;5014998;28;20177;-43
2021/11/30 07:03:18;;;;;;;1.77;1.50;;;2.40;99.90;;;;;;5014565;28;20168;-42
2021/11/30 07:05:45;;;;;;;2.90;1.63;;;2.40;99.90;;;;;;5014695;28;20256;-42
2021/11/30 07:15:47;;;;;;;1.93;1.73;;;2.50;99.90;;;;;;5014718;28;20180;-46
2021/11/30 07:18:15;;;;;;;6.50;2.03;;;2.50;99.90;;;;;;5007038;28;20227;-43
2021/11/30 07:20:42;;;;;;;1.60;1.50;;;4.10;99.90;;;;;;5004195;28;20175;-43
2021/11/30 07:23:07;;;;;;;3.87;1.93;;;2.50;99.90;;;;;;5024806;28;20172;-42
2021/11/30 07:25:33;;;;;;;2.30;1.83;;;2.60;99.90;;;;;;5032971;28;20168;-42
2021/11/30 07:28:00;;;;;;;1.57;1.47;;;2.60;99.90;;;;;;5016982;28;20231;-42
2021/11/30 07:30:25;;;;;;;2.07;1.70;;;2.60;99.90;;;;;;5013850;28;20554;-42
2021/11/30 07:32:51;;;;;;;2.20;1.53;;;2.60;99.90;;;;;;5014429;28;20247;-42
2021/11/30 07:35:20;;;;;;;1.40;1.30;;;2.60;99.90;;;;;;5013960;28;20643;-45
2021/11/30 07:37:46;;;;;;;1.70;1.60;;;2.60;99.90;;;;;;5013699;28;20184;-42
2021/11/30 07:40:12;;;;;;;9.87;2.17;;;2.60;99.90;;;;;;5014265;28;20172;-42
2021/11/30 07:42:38;;;;;;;3.77;1.80;;;2.60;99.90;;;;;;5013436;28;20203;-42
2021/11/30 07:45:04;;;;;;;8.30;1.97;;;2.70;99.90;;;;;;5013673;28;20176;-46
2021/11/30 07:47:29;;;;;;;4.13;1.90;;;2.70;99.90;;;;;;5013832;28;20220;-46
2021/11/30 07:49:55;;;;;;;3.63;1.63;;;2.70;99.90;;;;;;5013879;28;20199;-42
2021/11/30 07:52:20;;;;;;;3.97;1.53;;;2.70;99.90;;;;;;5014031;28;20173;-42
2021/11/30 07:54:46;;;;;;;6.40;1.70;;;2.70;99.90;;;;;;4995969;28;20263;-45
2021/11/30 07:57:13;;;;;;;3.27;2.03;;;2.70;99.90;;;;;;4996394;28;20211;-46
2021/11/30 07:59:39;;;;;;;4.43;1.90;;;2.70;99.90;;;;;;5013114;28;20188;-46
2021/11/30 08:02:06;;;;;;;2.93;1.97;;;2.80;99.90;;;;;;5013615;28;20540;-42
2021/11/30 08:04:32;;;;;;;2.27;1.77;;;2.80;99.90;;;;;;5013479;28;20235;-42
2021/11/30 08:06:57;;;;;;;3.97;1.93;;;2.80;99.90;;;;;;4995872;28;20192;-42
2021/11/30 08:09:25;;;;;;;4.47;2.00;;;2.80;99.90;;;;;;5013447;28;20227;-48
2021/11/30 08:11:51;;;;;;;2.77;2.13;;;2.80;99.90;;;;;;5013659;28;20176;-47
2021/11/30 08:14:17;;;;;;;5.17;2.10;;;2.80;99.90;;;;;;5013317;28;20563;-48
2021/11/30 08:16:45;;;;;;;2.90;2.17;;;1.30;99.90;;;;;;5013117;28;20189;-43
2021/11/30 08:19:11;;;;;;;2.60;1.93;;;2.80;99.90;;;;;;5013569;28;20177;-43
2021/11/30 08:21:37;;;;;;;2.77;1.90;;;2.80;99.90;;;;;;5013340;28;20199;-42
2021/11/30 08:24:03;;;;;;;2.10;1.90;;;2.80;99.90;;;;;;5013465;28;20168;-42
2021/11/30 08:26:29;;;;;;;2.40;1.93;;;2.80;99.90;;;;;;5012745;28;20741;-42
2021/11/30 08:28:55;;;;;;;1.83;1.73;;;2.80;99.90;;;;;;5013217;28;20595;-43
2021/11/30 08:31:20;;;;;;;3.03;2.20;;;2.80;99.90;;;;;;5013168;28;20196;-45
2021/11/30 08:33:46;;;;;;;3.27;2.13;;;2.80;99.90;;;;;;5010511;28;20264;-41
2021/11/30 08:36:12;;;;;;;4.17;1.77;;;2.80;99.90;;;;;;5011447;28;20521;-44
2021/11/30 08:38:38;;;;;;;3.77;2.10;;;2.80;99.90;;;;;;5012545;28;20183;-42
2021/11/30 08:41:04;;;;;;;5.50;2.40;;;2.70;99.90;;;;;;5012714;28;20172;-44
2021/11/30 08:43:30;;;;;;;7.70;2.53;;;2.80;99.90;;;;;;5012790;28;20200;-42
2021/11/30 08:45:56;;;;;;;3.13;2.43;;;2.80;99.90;;;;;;5012527;28;20644;-44
2021/11/30 08:48:24;;;;;;;4.53;2.30;;;2.70;99.90;;;;;;5003501;28;20193;-43
2021/11/30 08:50:50;;;;;;;2.47;2.27;;;2.70;99.90;;;;;;4993233;28;20760;-49
2021/11/30 08:53:18;;;;;;;2.50;2.30;;;2.70;99.90;;;;;;5000426;28;20574;-46
2021/11/30 08:55:43;;;;;;;5.97;2.67;;;2.70;99.90;;;;;;5008374;28;20246;-46
2021/11/30 08:58:09;;;;;;;8.20;2.60;;;2.70;99.90;;;;;;5010473;28;20216;-47
2021/11/30 09:00:35;;;;;;;2.60;2.40;;;2.60;99.90;;;;;;5010466;28;20551;-48
2021/11/30 09:03:01;;;;;;;3.00;2.30;;;2.60;99.90;;;;;;5010387;28;20281;-47
2021/11/30 09:05:27;;;;;;;2.50;2.20;;;2.60;99.90;;;;;;5010431;28;20204;-52
2021/11/30 09:07:53;;;;;;;2.60;2.40;;;2.60;99.90;;;;;;5010902;28;20726;-47
2021/11/30 09:10:19;;;;;;;2.37;2.10;;;2.60;99.90;;;;;;5012426;28;20192;-49
2021/11/30 09:12:45;;;;;;;3.17;2.57;;;2.60;99.90;;;;;;5011487;28;20180;-50
2021/11/30 09:15:11;;;;;;;5.37;2.90;;;2.60;99.90;;;;;;5011817;28;20603;-46
2021/11/30 09:17:37;;;;;;;4.50;3.00;;;2.60;99.90;;;;;;5011966;28;20550;-48
2021/11/30 09:20:08;;;;;;;3.83;2.60;;;2.60;99.90;;;;;;5012370;28;20183;-47
2021/11/30 09:22:34;;;;;;;3.33;2.33;;;2.60;99.90;;;;;;5005431;28;20248;-46
2021/11/30 09:25:03;;;;;;;3.07;2.50;;;2.60;99.90;;;;;;5007861;28;20635;-51
2021/11/30 09:27:29;;;;;;;3.80;2.53;;;2.50;99.90;;;;;;4995902;28;20734;-49
2021/11/30 09:29:55;;;;;;;2.80;2.50;;;2.60;99.90;;;;;;5012188;28;20275;-50
2021/11/30 09:32:23;;;;;;;3.43;2.57;;;2.50;99.90;;;;;;4999169;28;20172;-46
2021/11/30 09:34:48;;;;;;;2.90;2.33;;;2.50;99.90;;;;;;5004255;28;20176;-47
2021/11/30 09:37:14;;;;;;;3.83;2.70;;;2.50;99.90;;;;;;5010356;28;20267;-45
2021/11/30 09:39:39;;;;;;;3.03;2.67;;;2.50;99.90;;;;;;5011313;28;20172;-45
2021/11/30 09:42:05;;;;;;;4.97;3.00;;;2.50;99.90;;;;;;5010824;28;20564;-48
2021/11/30 09:44:31;;;;;;;3.87;2.97;;;2.50;99.90;;;;;;5011080;28;20204;-47
2021/11/30 09:46:59;;;;;;;4.33;2.70;;;2.50;99.90;;;;;;5010693;28;20200;-49
2021/11/30 09:49:25;;;;;;;2.77;2.47;;;2.50;99.90;;;;;;5010949;28;20180;-48
2021/11/30 09:51:51;;;;;;;3.10;2.63;;;2.50;99.90;;;;;;5011260;28;20796;-49
2021/11/30 09:54:17;;;;;;;3.37;2.60;;;2.50;99.90;;;;;;5011101;28;20255;-49
2021/11/30 09:56:43;;;;;;;3.10;2.30;;;2.50;99.90;;;;;;5009868;28;20236;-45
2021/11/30 09:59:09;;;;;;;4.50;2.60;;;2.50;99.90;;;;;;5010104;28;20259;-52
2021/11/30 10:01:35;;;;;;;4.07;2.53;;;2.50;99.90;;;;;;5008366;28;20168;-48
2021/11/30 10:04:03;;;;;;;4.77;2.80;;;2.60;99.90;;;;;;4998126;28;20184;-49
2021/11/30 10:06:29;;;;;;;2.73;2.30;;;2.60;99.90;;;;;;5007685;28;20184;-45
2021/11/30 10:08:56;;;;;;;2.70;2.50;;;2.60;99.90;;;;;;5009725;28;20279;-50
2021/11/30 10:11:38;;;;;;;3.07;2.73;;;2.60;99.90;;;;;;5009704;28;20536;-42
2021/11/30 10:14:08;;;;;;;4.47;2.33;;;2.60;99.90;;;;;;5010340;28;20294;-44
2021/11/30 10:16:33;;;;;;;3.37;2.47;;;2.60;99.90;;;;;;5010946;28;20192;-46
2021/11/30 10:19:00;;;;;;;3.10;2.80;;;2.60;99.90;;;;;;5011266;28;20176;-45
2021/11/30 10:21:26;;;;;;;3.20;2.40;;;2.60;99.90;;;;;;5011625;28;20635;-44
2021/11/30 10:23:52;;;;;;;2.60;2.40;;;2.60;99.90;;;;;;5010971;28;20645;-43
2021/11/30 10:26:21;;;;;;;2.50;2.30;;;2.60;99.90;;;;;;5010797;28;20260;-46
2021/11/30 10:28:55;;;;;;;3.50;2.37;;;2.60;99.90;;;;;;5011296;28;20190;-45
2021/11/30 10:31:25;;;;;;;3.97;3.07;;;2.60;99.90;;;;;;5011295;28;20698;-42
2021/11/30 10:33:52;;;;;;;2.43;2.23;;;2.60;99.90;;;;;;5006719;28;20197;-50
2021/11/30 10:36:17;;;;;;;2.93;2.50;;;2.50;99.90;;;;;;5008069;28;20165;-42
2021/11/30 10:38:43;;;;;;;4.37;2.73;;;2.60;99.90;;;;;;4993335;28;20551;-47
2021/11/30 10:41:22;;;;;;;2.53;2.20;;;2.50;99.90;;;;;;5010733;28;20185;-45
2021/11/30 10:43:56;;;;;;;2.33;2.10;;;2.50;99.90;;;;;;5004983;28;20326;-43
2021/11/30 10:46:27;;;;;;;4.13;2.40;;;2.50;99.90;;;;;;5010557;28;20198;-44
2021/11/30 10:48:55;;;;;;;2.50;2.30;;;2.40;99.90;;;;;;5010703;28;20189;-46
2021/11/30 10:51:20;;;;;;;2.40;2.20;;;2.40;99.90;;;;;;5010808;28;20200;-48
2021/11/30 10:53:48;;;;;;;3.93;2.07;;;2.40;99.90;;;;;;5010669;28;20315;-44
2021/11/30 10:56:27;;;;;;;2.93;2.33;;;2.40;99.90;;;;;;5008992;28;20583;-46
2021/11/30 10:58:54;;;;;;;2.43;2.23;;;2.40;99.90;;;;;;5009523;28;20661;-44
2021/11/30 11:01:22;;;;;;;3.83;2.37;;;2.40;99.90;;;;;;5012866;28;20168;-48
2021/11/30 11:04:06;;;;;;;2.67;2.47;;;2.70;99.90;;;;;;5013315;28;20411;-45
2021/11/30 11:06:35;;;;;;;4.10;2.00;;;2.40;99.90;;;;;;4992465;28;20193;-48
2021/11/30 11:09:07;;;;;;;2.10;1.90;;;2.40;99.90;;;;;;4993468;28;20185;-52
2021/11/30 11:11:36;;;;;;;1.77;1.67;;;2.40;99.90;;;;;;4994231;28;20363;-44
2021/11/30 11:14:05;;;;;;;2.20;2.00;;;2.40;99.90;;;;;;5010159;28;20173;-46
2021/11/30 11:16:37;;;;;;;4.07;1.80;;;2.40;99.90;;;;;;5014270;28;20195;-43
2021/11/30 11:19:07;;;;;;;1.70;1.60;;;2.40;99.90;;;;;;5014714;28;20176;-49
2021/11/30 11:21:36;;;;;;;1.57;1.40;;;2.40;99.90;;;;;;5014520;28;20606;-46
2021/11/30 11:24:08;;;;;;;1.50;1.40;;;2.40;99.90;;;;;;5014663;28;20169;-48
2021/11/30 11:26:49;;;;;;;3.40;1.43;;;2.40;99.90;;;;;;5014172;28;20200;-45
2021/11/30 11:29:16;;;;;;;1.83;1.73;;;2.40;99.90;;;;;;5014422;28;20169;-42
2021/11/30 11:31:45;;;;;;;1.40;1.30;;;2.50;99.90;;;;;;5014151;28;20784;-43
2021/11/30 11:34:14;;;;;;;1.40;1.23;;;2.40;99.90;;;;;;5014150;28;20631;-43
2021/11/30 11:36:44;;;;;;;1.80;1.37;;;2.40;99.90;;;;;;5013980;28;20223;-44
2021/11/30 11:39:14;;;;;;;1.50;1.40;;;2.50;99.90;;;;;;5014164;28;20233;-43
2021/11/30 11:41:40;;;;;;;1.50;1.40;;;2.50;99.90;;;;;;5013432;28;20196;-44
2021/11/30 11:44:05;;;;;;;1.77;1.50;;;2.50;99.90;;;;;;5014020;28;20655;-45
2021/11/30 11:46:37;;;;;;;2.03;1.40;;;2.60;99.90;;;;;;5013444;28;20196;-46
2021/11/30 11:49:06;;;;;;;1.47;1.37;;;2.50;99.90;;;;;;5014084;28;20184;-45
2021/11/30 11:51:45;;;;;;;1.00;1.00;;;2.50;99.90;;;;;;5013840;28;20295;-45
2021/11/30 11:54:29;;;;;;;1.10;1.10;;;2.50;99.90;;;;;;5013866;28;20176;-46
2021/11/30 11:57:03;;;;;;;1.30;1.20;;;2.50;99.90;;;;;;5013124;28;20199;-44
2021/11/30 11:59:31;;;;;;;2.03;1.00;;;2.50;99.90;;;;;;5014110;28;20168;-45
2021/11/30 12:02:25;;;;;;;1.67;1.17;;;2.50;99.90;;;;;;5013379;28;20170;-43
2021/11/30 12:04:57;;;;;;;0.97;0.90;;;2.50;99.90;;;;;;5013405;28;20165;-46
2021/11/30 12:07:25;;;;;;;2.20;1.30;;;2.50;99.90;;;;;;5013526;28;20570;-42
2021/11/30 12:10:17;;;;;;;1.40;1.30;;;2.50;99.90;;;;;;5013551;28;20215;-45
2021/11/30 12:13:00;;;;;;;1.23;1.13;;;2.50;99.90;;;;;;5012425;28;20160;-46
2021/11/30 12:15:31;;;;;;;0.90;0.90;;;2.50;99.90;;;;;;5013353;28;20169;-46
2021/11/30 12:18:34;;;;;;;1.03;1.00;;;2.50;99.90;;;;;;5013139;28;20339;-49
2021/11/30 12:21:07;;;;;;;1.20;1.10;;;2.60;99.90;;;;;;5013520;28;20592;-46
2021/11/30 12:23:34;;;;;;;0.90;0.90;;;2.60;99.90;;;;;;5013373;28;20263;-44
2021/11/30 12:26:00;;;;;;;3.90;1.20;;;2.60;99.90;;;;;;5012330;28;20169;-47
2021/11/30 12:28:37;;;;;;;1.83;0.90;;;2.60;99.90;;;;;;4993115;28;20212;-49
2021/11/30 12:31:05;;;;;;;1.10;1.10;;;2.70;99.90;;;;;;4976744;28;20628;-43
2021/11/30 12:33:37;;;;;;;1.07;1.00;;;2.70;99.90;;;;;;4993810;28;20548;-44
2021/11/30 12:36:09;;;;;;;1.60;1.30;;;2.70;99.90;;;;;;4993083;28;20169;-46
2021/11/30 12:39:02;;;;;;;1.37;1.27;;;2.80;99.90;;;;;;4993589;28;20177;-50
2021/11/30 12:41:40;;;;;;;1.30;1.13;;;2.80;99.90;;;;;;4983472;28;20195;-43
2021/11/30 12:44:14;;;;;;;1.00;1.00;;;2.80;99.90;;;;;;4993532;28;20197;-47
2021/11/30 12:46:48;;;;;;;1.20;1.10;;;2.80;99.90;;;;;;4992908;28;20627;-44
2021/11/30 12:49:33;;;;;;;1.47;1.10;;;2.80;99.90;;;;;;4993475;28;20179;-52
2021/11/30 12:52:18;;;;;;;1.00;0.87;;;2.90;99.90;;;;;;4993276;28;20176;-43
2021/11/30 12:54:54;;;;;;;0.80;0.70;;;2.80;99.90;;;;;;4992602;28;20177;-45
2021/11/30 12:57:28;;;;;;;0.80;0.80;;;2.80;99.90;;;;;;4992974;28;20240;-45
2021/11/30 12:59:59;;;;;;;2.37;1.00;;;2.80;99.90;;;;;;4993268;28;20196;-46
2021/11/30 13:02:27;;;;;;;0.80;0.80;;;2.90;99.90;;;;;;4976599;28;20184;-47
2021/11/30 13:05:07;;;;;;;1.90;0.80;;;2.80;99.90;;;;;;4992560;28;20216;-45
2021/11/30 13:07:36;;;;;;;0.80;0.80;;;2.70;99.90;;;;;;4993025;28;20189;-43
2021/11/30 13:10:04;;;;;;;0.93;0.83;;;3.30;99.90;;;;;;4992756;28;20201;-45
2021/11/30 13:12:34;;;;;;;0.90;0.70;;;2.70;99.90;;;;;;4992789;28;20276;-47
2021/11/30 13:15:04;;;;;;;0.80;0.80;;;2.70;99.90;;;;;;4992262;28;20177;-42